Terminal Aerodrome Forecast
Issued by NWS

Home | Current Version | Previous Version | Text Only | Print | Product List | Glossary Off
Versions: 1 2 3 4 5 6 7 8 9 10 11 12 13 14 15

000
FTUS43 KICT 141739
TAFSLN
TAF
KSLN 141739Z 1418/1518 32009KT P6SM OVC070
     FM142200 32010KT P6SM BKN025
     FM150300 33008KT P6SM BKN050
     FM150600 32007KT P6SM SKC
     FM151400 27007KT P6SM SKC=

USA.gov is the U.S. government's official web portal to all federal, state and local government web resources and services.